.
WxDataArchive / Data Records for 2011-10-21
2011-10-20 October 2011 2011-10-22

Data Records for Friday, 21 October 2011

Time	Temp	Chill	HIndex	Humid	Dewpt	 Wind 	HiWind	WindDir	Rain 	Barom 
-----	----	-----	------	-----	-----	------	------	-------	-----	----- 
00:00	42.9	42.9	42.9	94	41.3	2	4	270	0.00	29.814 
00:05	42.9	42.9	42.9	94	41.3	1	4	270	0.00	29.814 
00:10	42.9	42.9	42.9	94	41.3	1	4	270	0.00	29.814 
00:15	42.9	42.9	42.9	94	41.3	1	4	270	0.00	29.818 
00:20	42.9	42.9	42.9	94	41.3	2	3	270	0.00	29.818 
00:25	42.9	42.9	42.9	94	41.3	1	4	270	0.00	29.818 
00:30	43.1	43.1	43.1	94	41.5	1	4	270	0.00	29.826 
00:35	43.1	43.1	43.1	94	41.5	1	3	270	0.00	29.826 
00:40	43.1	43.1	43.1	94	41.5	1	4	270	0.00	29.826 
00:45	43.1	43.1	43.1	94	41.5	1	3	270	0.00	29.829 
00:50	43.1	43.1	43.1	94	41.5	1	4	270	0.00	29.829 
00:55	43.1	43.1	43.1	94	41.5	1	4	270	0.00	29.829 
01:00	43.1	43.1	43.1	94	41.5	1	4	270	0.00	29.831 
01:05	42.9	42.9	42.9	94	41.3	1	4	270	0.00	29.831 
01:10	42.9	42.9	42.9	94	41.3	1	4	270	0.00	29.831 
01:15	42.9	42.9	42.9	94	41.3	2	4	270	0.00	29.838 
01:20	42.9	42.9	42.9	94	41.3	1	4	270	0.00	29.838 
01:25	42.9	42.9	42.9	94	41.3	1	3	270	0.00	29.838 
01:30	42.9	42.9	42.9	94	41.3	1	3	270	0.00	29.842 
01:35	42.9	42.9	42.9	94	41.3	1	5	270	0.00	29.842 
01:40	42.9	42.9	42.9	94	41.3	1	3	270	0.00	29.842 
01:45	42.9	42.9	42.9	94	41.3	1	3	270	0.00	29.844 
01:50	42.9	42.9	42.9	94	41.3	1	4	270	0.00	29.844 
01:55	42.9	42.9	42.9	94	41.3	2	4	270	0.00	29.844 
02:00	42.9	42.9	42.9	94	41.3	2	3	270	0.00	29.850 
02:05	42.9	42.9	42.9	94	41.3	1	4	270	0.00	29.850 
02:10	43.1	43.1	43.1	94	41.5	1	3	270	0.00	29.850 
02:15	43.1	43.1	43.1	94	41.5	1	5	270	0.00	29.855 
02:20	43.1	43.1	43.1	94	41.5	1	3	270	0.00	29.855 
02:25	43.2	43.2	43.2	94	41.6	1	3	270	0.00	29.855 
02:30	43.2	43.2	43.2	94	41.6	0	2	270	0.00	29.858 
02:35	43.2	43.2	43.2	94	41.6	0	3	270	0.00	29.858 
02:40	43.2	43.2	43.2	94	41.6	1	3	270	0.00	29.858 
02:45	43.2	43.2	43.2	94	41.6	1	4	270	0.00	29.863 
02:50	43.3	43.3	43.3	94	41.7	1	3	270	0.00	29.863 
02:55	43.3	43.3	43.3	94	41.7	1	3	270	0.00	29.863 
03:00	43.3	43.3	43.3	94	41.7	0	2	270	0.00	29.872 
03:05	43.3	43.3	43.3	94	41.7	0	2	270	0.00	29.872 
03:10	43.3	43.3	43.3	94	41.7	1	3	270	0.00	29.872 
03:15	43.3	43.3	43.3	94	41.7	0	3	270	0.00	29.871 
03:20	43.2	43.2	43.2	94	41.6	1	3	270	0.00	29.871 
03:25	43.2	43.2	43.2	94	41.6	1	3	270	0.00	29.871 
03:30	43.2	43.2	43.2	94	41.6	0	2	270	0.00	29.873 
03:35	43.2	43.2	43.2	94	41.6	0	2	270	0.00	29.873 
03:40	43.2	43.2	43.2	94	41.6	0	3	270	0.00	29.873 
03:45	43.2	43.2	43.2	94	41.6	1	3	270	0.00	29.875 
03:50	43.2	43.2	43.2	94	41.6	1	5	270	0.00	29.875 
03:55	43.2	43.2	43.2	94	41.6	1	3	248	0.00	29.875 
04:00	43.2	43.2	43.2	94	41.6	1	3	248	0.00	29.875 
04:05	43.2	43.2	43.2	94	41.6	1	3	248	0.00	29.875 
04:10	43.2	43.2	43.2	94	41.6	1	4	248	0.00	29.875 
04:15	43.3	43.3	43.3	94	41.7	0	2	248	0.00	29.882 
04:20	43.3	43.3	43.3	94	41.7	1	3	248	0.00	29.882 
04:25	43.3	43.3	43.3	94	41.7	1	4	248	0.00	29.882 
04:30	43.3	43.3	43.3	94	41.7	1	4	248	0.00	29.888 
04:35	43.3	43.3	43.3	94	41.7	0	3	248	0.00	29.888 
04:40	43.3	43.3	43.3	94	41.7	1	3	248	0.00	29.888 
04:45	43.3	43.3	43.3	94	41.7	1	3	248	0.00	29.896 
04:50	43.5	43.5	43.5	94	41.9	1	4	248	0.00	29.896 
04:55	43.5	43.5	43.5	94	41.9	0	2	248	0.00	29.896 
05:00	43.5	43.5	43.5	94	41.9	0	2	248	0.00	29.904 
05:05	43.5	43.5	43.5	94	41.9	0	2	248	0.00	29.904 
05:10	43.5	43.5	43.5	94	41.9	0	2	248	0.00	29.904 
05:15	43.5	43.5	43.5	94	41.9	0	3	248	0.00	29.913 
05:20	43.5	43.5	43.5	93	41.6	1	3	248	0.00	29.913 
05:25	43.5	43.5	43.5	93	41.6	1	3	248	0.00	29.913 
05:30	43.5	43.5	43.5	93	41.6	1	3	248	0.00	29.921 
05:35	43.5	43.5	43.5	93	41.6	0	3	248	0.00	29.921 
05:40	43.3	43.3	43.3	93	41.4	0	2	248	0.00	29.921 
05:45	43.3	43.3	43.3	93	41.4	0	3	248	0.00	29.923 
05:50	43.3	43.3	43.3	93	41.4	1	2	248	0.00	29.923 
05:55	43.3	43.3	43.3	93	41.4	0	3	248	0.00	29.923 
06:00	43.2	43.2	43.2	93	41.3	1	3	248	0.00	29.931 
06:05	43.2	43.2	43.2	93	41.3	1	3	248	0.00	29.931 
06:10	43.2	43.2	43.2	93	41.3	0	2	248	0.00	29.931 
06:15	43.2	43.2	43.2	93	41.3	0	3	248	0.00	29.935 
06:20	43.2	43.2	43.2	93	41.3	0	3	248	0.00	29.935 
06:25	43.2	43.2	43.2	92	41.0	0	2	248	0.00	29.935 
06:30	43.1	43.1	43.1	92	40.9	0	2	248	0.00	29.939 
06:35	43.1	43.1	43.1	92	40.9	0	1	248	0.00	29.939 
06:40	43.1	43.1	43.1	92	40.9	0	2	248	0.00	29.939 
06:45	43.1	43.1	43.1	92	40.9	0	2	225	0.00	29.949 
06:50	43.1	43.1	43.1	92	40.9	0	3	225	0.00	29.949 
06:55	43.1	43.1	43.1	92	40.9	0	3	225	0.00	29.949 
07:00	43.1	43.1	43.1	92	40.9	0	4	225	0.00	29.952 
07:05	43.1	43.1	43.1	92	40.9	0	2	270	0.00	29.952 
07:10	43.1	43.1	43.1	92	40.9	0	2	270	0.00	29.952 
07:15	43.1	43.1	43.1	92	40.9	0	2	270	0.00	29.954 
07:20	43.1	43.1	43.1	91	40.7	0	1	270	0.00	29.954 
07:25	43.1	43.1	43.1	91	40.7	0	1	270	0.00	29.954 
07:30	43.1	43.1	43.1	91	40.7	0	2	270	0.00	29.955 
07:35	43.1	43.1	43.1	91	40.7	0	2	270	0.00	29.955 
07:40	43.2	43.2	43.2	91	40.8	0	1	270	0.00	29.955 
07:45	43.2	43.2	43.2	91	40.8	0	2	270	0.00	29.962 
07:50	43.2	43.2	43.2	90	40.5	1	3	270	0.00	29.962 
07:55	43.3	43.3	43.3	90	40.6	0	1	270	0.00	29.962 
08:00	43.3	43.3	43.3	90	40.6	0	1	270	0.00	29.970 
08:05	43.3	43.3	43.3	90	40.6	0	1	270	0.00	29.970 
08:10	43.3	43.3	43.3	90	40.6	0	1	270	0.00	29.970 
08:15	43.3	43.3	43.3	90	40.6	0	2	270	0.00	29.979 
08:20	43.3	43.3	43.3	90	40.6	0	1	270	0.00	29.979 
08:25	43.3	43.3	43.3	90	40.6	0	2	270	0.00	29.979 
08:30	43.5	43.5	43.5	90	40.8	0	1	270	0.00	29.986 
08:35	43.5	43.5	43.5	90	40.8	0	2	270	0.00	29.986 
08:40	43.5	43.5	43.5	90	40.8	0	2	270	0.00	29.986 
08:45	43.5	43.5	43.5	89	40.5	0	3	270	0.00	29.994 
08:50	43.5	43.5	43.5	89	40.5	0	2	270	0.00	29.994 
08:55	43.6	43.6	43.6	89	40.6	0	2	270	0.00	29.994 
09:00	43.6	43.6	43.6	89	40.6	0	2	270	0.00	29.999 
09:05	43.6	43.6	43.6	89	40.6	0	1	270	0.00	29.999 
09:10	43.8	43.8	43.8	89	40.8	0	1	270	0.00	29.999 
09:15	43.8	43.8	43.8	89	40.8	0	1	270	0.00	30.006 
09:20	43.8	43.8	43.8	89	40.8	0	1	270	0.00	30.006 
09:25	43.8	43.8	43.8	89	40.8	0	1	270	0.00	30.006 
09:30	43.9	43.9	43.9	88	40.6	0	1	270	0.00	30.012 
09:35	43.9	43.9	43.9	88	40.6	0	2	270	0.00	30.012 
09:40	44.1	44.1	44.1	88	40.8	0	1	270	0.00	30.012 
09:45	44.1	44.1	44.1	88	40.8	1	3	270	0.00	30.018 
09:50	44.2	44.2	44.2	88	40.9	0	2	270	0.00	30.018 
09:55	44.3	44.3	44.3	88	41.0	0	1	270	0.00	30.018 
10:00	44.5	44.5	44.5	88	41.2	0	2	270	0.00	30.019 
10:05	44.5	44.5	44.5	88	41.2	0	2	270	0.00	30.019 
10:10	44.5	44.5	44.5	88	41.2	0	2	270	0.00	30.019 
10:15	44.6	44.6	44.6	88	41.3	0	2	270	0.00	30.024 
10:20	44.6	44.6	44.6	87	41.0	0	2	270	0.00	30.024 
10:25	44.8	44.8	44.8	87	41.2	0	2	270	0.00	30.024 
10:30	44.8	44.8	44.8	87	41.2	0	2	270	0.00	30.030 
10:35	44.9	44.9	44.9	86	41.0	1	3	270	0.00	30.030 
10:40	45.1	45.1	45.1	86	41.2	1	3	270	0.00	30.030 
10:45	45.2	45.2	45.2	86	41.3	0	2	270	0.00	30.032 
10:50	45.5	45.5	45.5	85	41.3	0	3	270	0.00	30.032 
10:55	45.7	45.7	45.7	85	41.5	1	3	270	0.00	30.032 
11:00	45.8	45.8	45.8	84	41.2	0	2	270	0.00	30.034 
11:05	45.8	45.8	45.8	84	41.2	1	3	270	0.00	30.034 
11:10	46.1	46.1	46.1	84	41.5	0	1	270	0.00	30.034 
11:15	46.4	46.4	46.4	84	41.8	0	2	270	0.00	30.038 
11:20	46.5	46.5	46.5	83	41.6	1	3	270	0.00	30.038 
11:25	46.4	46.4	46.4	82	41.2	0	2	270	0.00	30.038 
11:30	46.5	46.5	46.5	82	41.3	0	2	270	0.00	30.038 
11:35	46.8	46.8	46.8	82	41.6	0	3	270	0.00	30.038 
11:40	47.0	47.0	47.0	82	41.8	0	2	270	0.00	30.038 
11:45	47.3	47.3	47.3	82	42.1	0	2	270	0.00	30.040 
11:50	47.3	47.3	47.3	81	41.8	1	3	270	0.00	30.040 
11:55	47.4	47.4	47.4	81	41.9	0	2	270	0.00	30.040 
12:00	47.6	47.6	47.6	81	42.1	0	1	270	0.00	30.043 
12:05	47.7	47.7	47.7	81	42.2	0	3	270	0.00	30.043 
12:10	47.7	47.7	47.7	80	41.8	1	3	270	0.00	30.043 
12:15	47.7	47.7	47.7	79	41.5	1	3	270	0.00	30.045 
12:20	47.9	47.9	47.9	80	42.0	0	2	270	0.00	30.045 
12:25	48.0	48.0	48.0	80	42.1	0	2	270	0.00	30.045 
12:30	48.0	48.0	48.0	79	41.8	1	3	270	0.00	30.043 
12:35	48.2	48.2	48.2	80	42.3	0	3	270	0.00	30.043 
12:40	48.3	48.3	48.3	80	42.4	0	1	270	0.00	30.043 
12:45	48.6	48.6	48.6	80	42.7	0	2	270	0.00	30.043 
12:50	48.5	48.5	48.5	79	42.3	0	2	270	0.00	30.043 
12:55	48.3	48.3	48.3	78	41.8	0	2	270	0.00	30.043 
13:00	48.5	48.5	48.5	79	42.3	0	1	270	0.00	30.043 
13:05	48.6	48.6	48.6	79	42.4	0	2	270	0.00	30.043 
13:10	48.6	48.6	48.6	77	41.7	1	3	270	0.00	30.043 
13:15	48.6	48.6	48.6	78	42.1	0	2	270	0.00	30.044 
13:20	48.6	48.6	48.6	77	41.7	0	2	270	0.00	30.044 
13:25	48.8	48.8	48.8	77	41.9	0	2	270	0.00	30.044 
13:30	48.9	48.9	48.9	77	42.0	0	3	270	0.00	30.042 
13:35	49.1	49.1	49.1	78	42.5	0	2	270	0.00	30.042 
13:40	49.2	49.2	49.2	76	42.0	1	3	270	0.00	30.042 
13:45	49.2	49.2	49.2	74	41.3	1	4	270	0.00	30.042 
13:50	49.2	49.2	49.2	73	40.9	1	4	270	0.00	30.042 
13:55	49.4	49.4	49.4	75	41.8	0	1	270	0.00	30.042 
14:00	49.4	49.4	49.4	73	41.1	1	4	270	0.00	30.041 
14:05	49.2	49.2	49.2	72	40.6	1	3	270	0.00	30.041 
14:10	49.2	49.2	49.2	73	40.9	0	1	270	0.00	30.041 
14:15	49.2	49.2	49.2	72	40.6	1	3	292	0.00	30.042 
14:20	49.2	49.2	49.2	71	40.2	1	4	338	0.00	30.042 
14:25	49.2	49.2	49.2	72	40.6	1	4	338	0.00	30.042 
14:30	49.2	49.2	49.2	72	40.6	1	3	270	0.00	30.042 
14:35	49.2	49.2	49.2	72	40.6	0	2	270	0.00	30.042 
14:40	49.2	49.2	49.2	73	40.9	0	1	270	0.00	30.042 
14:45	49.4	49.4	49.4	72	40.8	0	2	270	0.00	30.043 
14:50	49.4	49.4	49.4	71	40.4	1	3	270	0.00	30.043 
14:55	49.5	49.5	49.5	71	40.5	1	3	270	0.00	30.043 
15:00	49.5	49.5	49.5	71	40.5	1	3	270	0.00	30.044 
15:05	49.5	49.5	49.5	70	40.1	1	4	270	0.00	30.044 
15:10	49.5	49.5	49.5	70	40.1	1	3	270	0.00	30.044 
15:15	49.5	49.5	49.5	70	40.1	1	4	315	0.00	30.044 
15:20	49.4	49.4	49.4	69	39.7	1	3	315	0.00	30.044 
15:25	49.4	49.4	49.4	69	39.7	2	4	270	0.00	30.044 
15:30	49.5	49.5	49.5	70	40.1	1	3	270	0.00	30.046 
15:35	49.5	49.5	49.5	70	40.1	1	3	315	0.00	30.046 
15:40	49.5	49.5	49.5	70	40.1	1	3	315	0.00	30.046 
15:45	49.5	49.5	49.5	70	40.1	0	3	315	0.00	30.046 
15:50	49.5	49.5	49.5	70	40.1	0	2	315	0.00	30.046 
15:55	49.5	49.5	49.5	69	39.8	0	3	315	0.00	30.046 
16:00	49.5	49.5	49.5	70	40.1	0	1	315	0.00	30.048 
16:05	49.6	49.6	49.6	69	39.9	0	1	315	0.00	30.048 
16:10	49.6	49.6	49.6	69	39.9	0	2	315	0.00	30.048 
16:15	49.8	49.8	49.8	69	40.0	0	1	315	0.00	30.048 
16:20	49.8	49.8	49.8	69	40.0	0	1	315	0.00	30.048 
16:25	49.8	49.8	49.8	68	39.7	0	1	315	0.00	30.048 
16:30	49.8	49.8	49.8	68	39.7	1	3	315	0.00	30.053 
16:35	49.8	49.8	49.8	68	39.7	0	3	315	0.00	30.053 
16:40	49.8	49.8	49.8	68	39.7	0	2	315	0.00	30.053 
16:45	49.9	49.9	49.9	69	40.1	0	1	315	0.00	30.052 
16:50	49.9	49.9	49.9	69	40.1	0	1	315	0.00	30.052 
16:55	49.8	49.8	49.8	68	39.7	0	1	315	0.00	30.052 
17:00	49.8	49.8	49.8	69	40.0	0	2	315	0.00	30.056 
17:05	49.8	49.8	49.8	69	40.0	0	1	315	0.00	30.056 
17:10	49.8	49.8	49.8	69	40.0	0	1	315	0.00	30.056 
17:15	49.9	49.9	49.9	70	40.5	0	0	---	0.00	30.059 
17:20	49.9	49.9	49.9	69	40.1	0	1	315	0.00	30.059 
17:25	49.8	49.8	49.8	69	40.0	0	1	315	0.00	30.059 
17:30	49.8	49.8	49.8	69	40.0	0	1	315	0.00	30.060 
17:35	49.8	49.8	49.8	69	40.0	0	1	315	0.00	30.060 
17:40	49.8	49.8	49.8	70	40.4	0	0	---	0.00	30.060 
17:45	49.8	49.8	49.8	69	40.0	0	1	315	0.00	30.063 
17:50	49.8	49.8	49.8	70	40.4	0	1	315	0.00	30.063 
17:55	49.8	49.8	49.8	71	40.8	0	0	---	0.00	30.063 
18:00	49.8	49.8	49.8	70	40.4	0	0	---	0.00	30.065 
18:05	49.8	49.8	49.8	71	40.8	0	0	---	0.00	30.065 
18:10	49.8	49.8	49.8	72	41.1	0	0	---	0.00	30.065 
18:15	49.6	49.6	49.6	72	40.9	0	0	---	0.00	30.065 
18:20	49.6	49.6	49.6	72	40.9	0	0	---	0.00	30.065 
18:25	49.4	49.4	49.4	73	41.1	0	0	---	0.00	30.065 
18:30	49.1	49.1	49.1	73	40.8	0	0	---	0.00	30.070 
18:35	48.8	48.8	48.8	74	40.9	0	0	---	0.00	30.070 
18:40	48.5	48.5	48.5	74	40.6	0	0	---	0.00	30.070 
18:45	48.2	48.2	48.2	74	40.3	0	0	---	0.00	30.077 
18:50	47.9	47.9	47.9	75	40.4	0	0	---	0.00	30.077 
18:55	47.7	47.7	47.7	76	40.5	0	0	---	0.00	30.077 
19:00	47.4	47.4	47.4	77	40.6	0	0	---	0.00	30.080 
19:05	47.3	47.3	47.3	77	40.5	0	0	---	0.00	30.080 
19:10	47.0	47.0	47.0	78	40.5	0	0	---	0.00	30.080 
19:15	46.8	46.8	46.8	79	40.6	0	0	---	0.00	30.084 
19:20	46.5	46.5	46.5	80	40.7	0	0	---	0.00	30.084 
19:25	46.2	46.2	46.2	81	40.7	0	0	---	0.00	30.084 
19:30	46.0	46.0	46.0	81	40.5	0	0	---	0.00	30.090 
19:35	45.7	45.7	45.7	82	40.5	0	0	---	0.00	30.090 
19:40	45.2	45.2	45.2	82	40.0	0	0	---	0.00	30.090 
19:45	44.8	44.8	44.8	83	40.0	0	0	---	0.00	30.092 
19:50	44.3	44.3	44.3	84	39.8	0	0	---	0.00	30.092 
19:55	44.1	44.1	44.1	84	39.6	0	0	---	0.00	30.092 
20:00	43.8	43.8	43.8	85	39.6	0	0	---	0.00	30.096 
20:05	43.3	43.3	43.3	86	39.4	0	0	---	0.00	30.096 
20:10	42.9	42.9	42.9	86	39.0	0	0	---	0.00	30.096 
20:15	42.6	42.6	42.6	87	39.0	0	0	---	0.00	30.098 
20:20	42.3	42.3	42.3	87	38.7	0	0	---	0.00	30.098 
20:25	42.1	42.1	42.1	88	38.8	0	0	---	0.00	30.098 
20:30	41.8	41.8	41.8	88	38.5	0	0	---	0.00	30.101 
20:35	41.5	41.5	41.5	88	38.2	0	0	---	0.00	30.101 
20:40	41.3	41.3	41.3	88	38.0	0	0	---	0.00	30.101 
20:45	41.1	41.1	41.1	88	37.8	0	0	---	0.00	30.105 
20:50	40.8	40.8	40.8	88	37.5	0	0	---	0.00	30.105 
20:55	40.6	40.6	40.6	89	37.6	0	0	---	0.00	30.105 
21:00	40.3	40.3	40.3	89	37.3	0	0	---	0.00	30.105 
21:05	40.1	40.1	40.1	89	37.1	0	0	---	0.00	30.105 
21:10	39.8	39.8	39.8	89	36.8	0	0	---	0.00	30.105 
21:15	39.6	39.6	39.6	90	36.9	0	0	---	0.00	30.106 
21:20	39.3	39.3	39.3	90	36.6	0	0	---	0.00	30.106 
21:25	39.2	39.2	39.2	90	36.5	0	0	---	0.00	30.106 
21:30	39.1	39.1	39.1	90	36.4	0	0	---	0.00	30.108 
21:35	38.9	38.9	38.9	90	36.2	0	0	---	0.00	30.108 
21:40	38.8	38.8	38.8	91	36.4	0	0	---	0.00	30.108 
21:45	38.6	38.6	38.6	91	36.2	0	0	---	0.00	30.110 
21:50	38.5	38.5	38.5	91	36.1	0	0	---	0.00	30.110 
21:55	38.3	38.3	38.3	91	35.9	0	0	---	0.00	30.110 
22:00	38.2	38.2	38.2	91	35.8	0	0	---	0.00	30.113 
22:05	38.0	38.0	38.0	91	35.6	0	0	---	0.00	30.113 
22:10	37.9	37.9	37.9	91	35.5	0	0	---	0.00	30.113 
22:15	37.8	37.8	37.8	92	35.7	0	0	---	0.00	30.110 
22:20	37.8	37.8	37.8	92	35.7	0	0	---	0.00	30.110 
22:25	37.6	37.6	37.6	92	35.5	0	0	---	0.00	30.110 
22:30	37.5	37.5	37.5	92	35.4	0	0	---	0.00	30.111 
22:35	37.5	37.5	37.5	92	35.4	0	0	---	0.00	30.111 
22:40	37.3	37.3	37.3	92	35.2	0	0	---	0.00	30.111 
22:45	37.2	37.2	37.2	92	35.1	0	0	---	0.00	30.107 
22:50	37.0	37.0	37.0	92	34.9	0	0	---	0.00	30.107 
22:55	36.9	36.9	36.9	92	34.8	0	0	---	0.00	30.107 
23:00	36.8	36.8	36.8	92	34.7	0	0	---	0.00	30.106 
23:05	36.6	36.6	36.6	92	34.5	0	0	---	0.00	30.106 
23:10	36.3	36.3	36.3	92	34.2	0	0	---	0.00	30.106 
23:15	36.2	36.2	36.2	92	34.1	0	0	---	0.00	30.103 
23:20	36.0	36.0	36.0	92	33.9	0	0	---	0.00	30.103 
23:25	36.0	36.0	36.0	92	33.9	0	0	---	0.00	30.103 
23:30	35.9	35.9	35.9	92	33.8	0	0	---	0.00	30.105 
23:35	35.8	35.8	35.8	92	33.7	0	0	---	0.00	30.105 
23:40	35.6	35.6	35.6	92	33.5	0	0	---	0.00	30.105 
23:45	35.5	35.5	35.5	92	33.4	0	0	---	0.00	30.104 
23:50	35.3	35.3	35.3	92	33.2	0	0	---	0.00	30.104 
23:55	35.3	35.3	35.3	92	33.2	0	0	---	0.00	30.104 

CoCoRaHS
IN-AL-39
A2 Web Hosting
Creative Commons License
GoDaddy
search engine by freefind advanced

loaded 2018-11-21 00:58:25 • last modified 2010-11-18 10:43:29
Privacy PolicyDisclaimer
• wx.awcolley.com is powered by PmWiki v.2002016 •
• all content (unless otherwise noted) © 2018 A W Colley